createdAt,value
2022-08-17T00:01:51.954Z,21.91
2022-08-17T00:04:19.877Z,21.74
2022-08-17T00:06:49.142Z,21.86
2022-08-17T00:09:18.786Z,22.19
2022-08-17T00:12:41.741Z,22.44
2022-08-17T00:14:36.044Z,22.72
2022-08-17T00:17:04.764Z,22.90
2022-08-17T00:19:32.861Z,23.03
2022-08-17T00:22:31.451Z,23.13
2022-08-17T00:24:50.330Z,23.23
2022-08-17T00:27:17.515Z,23.31
2022-08-17T00:29:45.964Z,23.39
2022-08-17T00:33:14.210Z,23.47
2022-08-17T00:35:05.461Z,23.51
2022-08-17T00:37:32.201Z,23.57
2022-08-17T00:39:59.007Z,23.61
2022-08-17T00:42:30.457Z,23.65
2022-08-17T00:44:58.414Z,23.65
2022-08-17T00:47:25.373Z,23.62
2022-08-17T00:49:52.386Z,23.65
2022-08-17T00:52:23.074Z,23.67
2022-08-17T00:54:52.376Z,23.65
2022-08-17T00:57:23.443Z,23.63
2022-08-17T01:00:02.231Z,23.60
2022-08-17T01:02:42.196Z,23.65
2022-08-17T01:05:14.251Z,23.61
2022-08-17T01:07:41.930Z,23.26
2022-08-17T01:10:58.157Z,23.21
2022-08-17T01:12:58.322Z,23.33
2022-08-17T01:15:25.425Z,23.34
2022-08-17T01:17:52.194Z,23.27
2022-08-17T01:20:19.101Z,23.28
2022-08-17T01:22:45.893Z,23.30
2022-08-17T01:25:12.894Z,23.30
2022-08-17T01:27:39.796Z,23.20
2022-08-17T01:30:56.850Z,22.98
2022-08-17T01:32:56.586Z,22.92
2022-08-17T01:35:23.303Z,22.77
2022-08-17T01:37:50.414Z,22.78
2022-08-17T01:40:23.871Z,22.80
2022-08-17T01:43:10.766Z,22.73
2022-08-17T01:45:43.206Z,22.57
2022-08-17T01:48:10.795Z,22.47
2022-08-17T01:50:38.061Z,22.45
2022-08-17T01:53:08.518Z,22.49
2022-08-17T01:55:43.140Z,22.51
2022-08-17T01:58:10.074Z,22.37
2022-08-17T02:01:00.140Z,22.16
2022-08-17T02:03:25.539Z,22.12
2022-08-17T02:05:53.246Z,22.17
2022-08-17T02:08:21.309Z,22.24
2022-08-17T02:11:11.711Z,22.26
2022-08-17T02:13:39.205Z,22.27
2022-08-17T02:16:05.996Z,22.28
2022-08-17T02:18:32.853Z,22.15
2022-08-17T02:20:59.997Z,22.08
2022-08-17T02:23:33.948Z,22.08
2022-08-17T02:26:02.318Z,22.10
2022-08-17T02:28:29.384Z,22.15
2022-08-17T02:31:00.666Z,22.22
2022-08-17T02:33:43.285Z,22.23
2022-08-17T02:36:12.154Z,22.24
2022-08-17T02:38:39.972Z,22.27
2022-08-17T02:41:06.865Z,22.22
2022-08-17T02:43:33.677Z,22.15
2022-08-17T02:46:00.460Z,22.10
2022-08-17T02:48:30.813Z,22.06
2022-08-17T02:50:59.047Z,22.03
2022-08-17T02:53:26.143Z,22.01
2022-08-17T02:55:53.112Z,22.04
2022-08-17T02:58:29.608Z,22.00
2022-08-17T03:01:05.031Z,21.94
2022-08-17T03:03:32.299Z,21.93
2022-08-17T03:05:59.060Z,21.92
2022-08-17T03:08:25.866Z,21.88
2022-08-17T03:10:52.967Z,21.89
2022-08-17T03:13:20.073Z,21.93
2022-08-17T03:15:48.320Z,21.95
2022-08-17T03:18:24.965Z,22.00
2022-08-17T03:20:54.612Z,22.02
2022-08-17T03:23:24.001Z,21.97
2022-08-17T03:25:53.205Z,21.92
2022-08-17T03:28:21.671Z,21.87
2022-08-17T03:30:48.824Z,21.86
2022-08-17T03:33:16.227Z,21.84
2022-08-17T03:35:43.535Z,21.85
2022-08-17T03:38:11.407Z,21.86
2022-08-17T03:40:56.853Z,21.86
2022-08-17T03:43:27.635Z,21.83
2022-08-17T03:46:28.293Z,21.75
2022-08-17T03:49:18.614Z,21.75
2022-08-17T03:52:03.872Z,21.72
2022-08-17T03:54:49.363Z,21.71
2022-08-17T03:57:16.628Z,21.71
2022-08-17T03:59:45.102Z,21.71
2022-08-17T04:02:17.895Z,21.64
2022-08-17T04:04:44.751Z,21.58
2022-08-17T04:07:11.591Z,21.61
2022-08-17T04:09:38.330Z,21.66
2022-08-17T04:12:05.720Z,21.64
2022-08-17T04:14:49.491Z,21.58
2022-08-17T04:17:19.925Z,21.59
2022-08-17T04:19:46.894Z,21.53
2022-08-17T04:22:32.479Z,21.46
2022-08-17T04:25:16.165Z,21.40
2022-08-17T04:27:42.903Z,21.42
2022-08-17T04:30:10.467Z,21.39
2022-08-17T04:33:11.006Z,21.40
2022-08-17T04:35:41.161Z,21.39
2022-08-17T04:38:09.218Z,21.39
2022-08-17T04:40:54.962Z,21.40
2022-08-17T04:43:23.794Z,21.38
2022-08-17T04:45:59.101Z,21.37
2022-08-17T04:48:36.410Z,21.37
2022-08-17T04:51:09.725Z,21.35
2022-08-17T04:53:37.701Z,21.29
2022-08-17T04:56:04.862Z,21.27
2022-08-17T04:58:31.635Z,21.21
2022-08-17T05:00:58.407Z,21.19
2022-08-17T05:03:25.359Z,21.16
2022-08-17T05:05:52.067Z,21.17
2022-08-17T05:08:20.052Z,21.22
2022-08-17T05:10:47.717Z,21.24
2022-08-17T05:13:18.044Z,21.26
2022-08-17T05:15:45.378Z,21.37
2022-08-17T05:18:16.040Z,21.31
2022-08-17T05:20:43.064Z,21.26
2022-08-17T05:23:12.631Z,21.24
2022-08-17T05:25:48.246Z,21.22
2022-08-17T05:28:18.669Z,21.23
2022-08-17T05:30:50.490Z,21.17
2022-08-17T05:33:21.066Z,21.14
2022-08-17T05:35:50.221Z,20.96
2022-08-17T05:38:19.377Z,20.95
2022-08-17T05:40:46.871Z,21.05
2022-08-17T05:43:17.212Z,21.15
2022-08-17T05:45:55.703Z,21.34
2022-08-17T05:48:39.611Z,21.31
2022-08-17T05:51:19.303Z,21.31
2022-08-17T05:53:46.053Z,21.32
2022-08-17T05:56:30.069Z,21.37
2022-08-17T05:59:34.313Z,21.54
2022-08-17T06:02:19.795Z,21.39
2022-08-17T06:05:27.735Z,21.29
2022-08-17T06:07:57.038Z,21.18
2022-08-17T06:10:43.923Z,21.12
2022-08-17T06:13:22.547Z,21.27
2022-08-17T06:16:04.415Z,21.49
2022-08-17T06:18:59.942Z,21.76
2022-08-17T06:21:32.117Z,21.95
2022-08-17T06:24:07.498Z,22.11
2022-08-17T06:26:42.998Z,22.20
2022-08-17T06:29:22.384Z,22.27
2022-08-17T06:31:50.117Z,22.28
2022-08-17T06:34:16.868Z,22.34
2022-08-17T06:37:31.701Z,22.37
2022-08-17T06:40:22.176Z,22.25
2022-08-17T06:43:06.112Z,22.25
2022-08-17T06:45:40.406Z,22.32
2022-08-17T06:48:24.418Z,22.53
2022-08-17T06:51:04.957Z,22.77
2022-08-17T06:53:45.586Z,22.87
2022-08-17T06:56:17.721Z,23.07
2022-08-17T06:58:45.276Z,23.27
2022-08-17T07:01:21.561Z,23.25
2022-08-17T07:03:54.795Z,23.25
2022-08-17T07:06:43.722Z,23.27
2022-08-17T07:09:14.950Z,23.21
2022-08-17T07:11:47.417Z,23.10
2022-08-17T07:14:29.531Z,23.00
2022-08-17T07:16:58.561Z,22.95
2022-08-17T07:19:32.705Z,23.21
2022-08-17T07:22:25.181Z,23.46
2022-08-17T07:25:09.750Z,23.71
2022-08-17T07:27:42.054Z,23.94
2022-08-17T07:30:12.430Z,24.13
2022-08-17T07:32:46.523Z,24.32
2022-08-17T07:35:44.362Z,24.49
2022-08-17T07:38:26.926Z,24.62
2022-08-17T07:41:03.495Z,24.76
2022-08-17T07:43:33.078Z,24.85
2022-08-17T07:46:19.926Z,24.94
2022-08-17T07:48:50.330Z,24.90
2022-08-17T07:51:32.389Z,24.69
2022-08-17T07:54:14.110Z,24.64
2022-08-17T07:56:44.748Z,24.79
2022-08-17T07:59:16.992Z,24.91
2022-08-17T08:02:17.199Z,24.87
2022-08-17T08:05:03.587Z,25.04
2022-08-17T08:07:43.551Z,25.39
2022-08-17T08:10:27.944Z,25.62
2022-08-17T08:13:08.577Z,25.85
2022-08-17T08:15:53.578Z,25.64
2022-08-17T08:18:53.754Z,25.59
2022-08-17T08:21:18.611Z,25.67
2022-08-17T08:23:53.268Z,25.60
2022-08-17T08:26:26.471Z,25.62
2022-08-17T08:29:29.374Z,25.77
2022-08-17T08:32:27.154Z,25.73
2022-08-17T08:35:06.863Z,25.74
2022-08-17T08:37:52.159Z,25.88
2022-08-17T08:40:31.001Z,25.95
2022-08-17T08:43:16.628Z,26.03
2022-08-17T08:46:10.120Z,25.85
2022-08-17T08:48:57.061Z,25.47
2022-08-17T08:51:56.748Z,25.13
2022-08-17T08:54:44.319Z,24.95
2022-08-17T08:57:26.710Z,24.69
2022-08-17T08:59:57.806Z,24.61
2022-08-17T09:02:24.858Z,24.55
2022-08-17T09:05:15.357Z,24.58
2022-08-17T09:08:16.289Z,24.66
2022-08-17T09:10:52.167Z,24.70
2022-08-17T09:13:43.374Z,24.87
2022-08-17T09:16:17.457Z,25.06
2022-08-17T09:19:01.796Z,25.29
2022-08-17T09:21:38.227Z,25.48
2022-08-17T09:24:24.223Z,25.66
2022-08-17T09:27:01.094Z,25.95
2022-08-17T09:29:35.201Z,26.18
2022-08-17T09:32:20.235Z,26.31
2022-08-17T09:34:53.603Z,26.50
2022-08-17T09:37:37.940Z,26.73
2022-08-17T09:40:16.444Z,26.99
2022-08-17T09:43:08.362Z,27.13
2022-08-17T09:45:42.665Z,27.15
2022-08-17T09:48:25.231Z,27.12
2022-08-17T09:51:12.804Z,27.02
2022-08-17T09:53:40.034Z,26.80
2022-08-17T09:56:13.066Z,26.96
2022-08-17T09:59:07.003Z,27.15
2022-08-17T10:01:42.668Z,27.30
2022-08-17T10:04:43.474Z,27.33
2022-08-17T10:07:19.363Z,27.40
2022-08-17T10:09:56.105Z,27.51
2022-08-17T10:12:32.385Z,27.61
2022-08-17T10:15:25.075Z,27.69
2022-08-17T10:18:24.615Z,27.68
2022-08-17T10:21:23.783Z,27.76
2022-08-17T10:24:26.661Z,27.79
2022-08-17T10:26:56.460Z,27.86
2022-08-17T10:29:49.744Z,27.94
2022-08-17T10:32:35.965Z,28.03
2022-08-17T10:35:39.929Z,28.15
2022-08-17T10:38:24.691Z,28.10
2022-08-17T10:41:04.624Z,28.02
2022-08-17T10:44:39.398Z,28.13
2022-08-17T10:47:11.746Z,28.37
2022-08-17T10:49:49.458Z,28.32
2022-08-17T10:52:28.277Z,28.34
2022-08-17T10:54:58.006Z,28.51
2022-08-17T10:57:34.455Z,28.46
2022-08-17T11:00:10.960Z,28.34
2022-08-17T11:02:47.964Z,28.19
2022-08-17T11:05:43.817Z,28.23
2022-08-17T11:08:29.380Z,28.07
2022-08-17T11:11:08.265Z,28.05
2022-08-17T11:13:53.334Z,27.96
2022-08-17T11:16:20.223Z,28.02
2022-08-17T11:19:05.974Z,28.09
2022-08-17T11:21:58.253Z,28.25
2022-08-17T11:24:47.941Z,28.40
2022-08-17T11:27:33.819Z,28.56
2022-08-17T11:30:02.898Z,28.66
2022-08-17T11:32:38.863Z,28.82
2022-08-17T11:35:20.735Z,29.15
2022-08-17T11:37:50.452Z,29.28
2022-08-17T11:40:33.296Z,29.33
2022-08-17T11:43:13.854Z,29.28
2022-08-17T11:46:10.469Z,29.36
2022-08-17T11:49:18.631Z,29.39
2022-08-17T11:52:11.725Z,29.29
2022-08-17T11:54:48.042Z,29.21
2022-08-17T11:57:26.781Z,29.34
2022-08-17T12:00:07.307Z,29.46
2022-08-17T12:02:38.878Z,29.81
2022-08-17T12:05:22.955Z,30.02
2022-08-17T12:08:01.501Z,30.36
2022-08-17T12:10:34.451Z,30.42
2022-08-17T12:13:07.339Z,30.52
2022-08-17T12:15:41.535Z,30.69
2022-08-17T12:18:09.101Z,30.85
2022-08-17T12:20:42.541Z,30.98
2022-08-17T12:23:23.820Z,31.12
2022-08-17T12:25:59.409Z,31.19
2022-08-17T12:28:29.503Z,31.12
2022-08-17T12:31:44.272Z,31.20
2022-08-17T12:34:26.990Z,31.41
2022-08-17T12:37:02.378Z,31.60
2022-08-17T12:39:30.488Z,31.75
2022-08-17T12:42:02.758Z,31.93
2022-08-17T12:44:35.850Z,32.15
2022-08-17T12:47:22.564Z,32.23
2022-08-17T12:49:52.794Z,32.27
2022-08-17T12:52:19.382Z,32.53
2022-08-17T12:55:05.773Z,32.55
2022-08-17T12:57:37.887Z,32.55
2022-08-17T13:00:34.362Z,32.37
2022-08-17T13:03:08.078Z,32.02
2022-08-17T13:05:44.150Z,31.79
2022-08-17T13:08:20.194Z,31.56
2022-08-17T13:11:13.566Z,31.51
2022-08-17T13:13:42.719Z,31.51
2022-08-17T13:16:12.477Z,31.45
2022-08-17T13:18:45.514Z,31.43
2022-08-17T13:21:22.091Z,31.52
2022-08-17T13:23:59.770Z,31.51
2022-08-17T13:26:45.483Z,31.55
2022-08-17T13:29:27.469Z,31.64
2022-08-17T13:32:04.106Z,31.63
2022-08-17T13:34:49.579Z,31.60
2022-08-17T13:37:25.489Z,31.55
2022-08-17T13:39:55.418Z,31.50
2022-08-17T13:42:52.967Z,31.44
2022-08-17T13:45:34.938Z,31.46
2022-08-17T13:48:13.677Z,31.46
2022-08-17T13:50:42.690Z,31.60
2022-08-17T13:53:29.993Z,31.80
2022-08-17T13:56:05.614Z,31.93
2022-08-17T13:58:39.507Z,32.03
2022-08-17T14:01:28.303Z,32.28
2022-08-17T14:03:56.030Z,32.53
2022-08-17T14:06:51.765Z,32.70
2022-08-17T14:09:11.212Z,32.69
2022-08-17T14:11:38.266Z,32.69
2022-08-17T14:14:05.141Z,32.63
2022-08-17T14:16:32.130Z,32.68
2022-08-17T14:18:58.942Z,32.77
2022-08-17T14:21:25.655Z,32.96
2022-08-17T14:23:54.476Z,33.21
2022-08-17T14:26:21.765Z,33.37
2022-08-17T14:28:56.618Z,33.44
2022-08-17T14:31:25.010Z,33.41
2022-08-17T14:33:52.156Z,33.39
2022-08-17T14:36:18.871Z,33.33
2022-08-17T14:38:45.553Z,33.17
2022-08-17T14:41:12.386Z,33.30
2022-08-17T14:43:39.896Z,33.47
2022-08-17T14:46:06.898Z,33.55
2022-08-17T14:48:35.752Z,33.66
2022-08-17T14:51:04.296Z,33.56
2022-08-17T14:53:31.409Z,33.37
2022-08-17T14:55:58.527Z,33.26
2022-08-17T14:58:26.022Z,33.22
2022-08-17T15:00:53.414Z,33.28
2022-08-17T15:03:20.382Z,33.53
2022-08-17T15:05:48.568Z,33.69
2022-08-17T15:08:16.723Z,33.48
2022-08-17T15:10:44.743Z,33.46
2022-08-17T15:13:22.219Z,33.42
2022-08-17T15:15:49.367Z,33.23
2022-08-17T15:18:16.164Z,32.74
2022-08-17T15:20:44.773Z,32.39
2022-08-17T15:23:15.503Z,32.36
2022-08-17T15:25:43.772Z,32.49
2022-08-17T15:28:10.603Z,32.62
2022-08-17T15:30:37.999Z,32.71
2022-08-17T15:33:04.793Z,32.89
2022-08-17T15:35:33.811Z,32.82
2022-08-17T15:38:09.915Z,32.85
2022-08-17T15:40:41.560Z,32.85
2022-08-17T15:43:27.344Z,32.95
2022-08-17T15:46:14.448Z,32.89
2022-08-17T15:48:42.950Z,32.79
2022-08-17T15:51:22.788Z,32.61
2022-08-17T15:53:56.987Z,32.49
2022-08-17T15:56:25.427Z,32.39
2022-08-17T15:58:53.823Z,32.21
2022-08-17T16:02:14.281Z,31.96
2022-08-17T16:04:30.106Z,31.75
2022-08-17T16:06:56.958Z,31.61
2022-08-17T16:09:23.608Z,31.54
2022-08-17T16:11:53.886Z,31.44
2022-08-17T16:14:23.190Z,31.33
2022-08-17T16:16:50.942Z,31.24
2022-08-17T16:19:17.788Z,31.08
2022-08-17T16:21:44.508Z,30.80
2022-08-17T16:24:13.139Z,30.74
2022-08-17T16:26:42.222Z,30.71
2022-08-17T16:29:09.185Z,30.63
2022-08-17T16:31:37.734Z,30.61
2022-08-17T16:34:17.857Z,30.59
2022-08-17T16:36:55.363Z,30.53
2022-08-17T16:39:29.649Z,30.43
2022-08-17T16:41:57.293Z,30.34
2022-08-17T16:44:25.814Z,30.25
2022-08-17T16:46:53.433Z,30.18
2022-08-17T16:49:31.915Z,30.09
2022-08-17T16:52:04.970Z,30.00
2022-08-17T16:54:35.519Z,29.90
2022-08-17T16:57:05.232Z,29.81
2022-08-17T16:59:40.298Z,29.74
2022-08-17T17:02:12.534Z,29.68
2022-08-17T17:04:50.374Z,29.67
2022-08-17T17:07:28.347Z,29.77
2022-08-17T17:09:55.827Z,29.86
2022-08-17T17:13:00.824Z,29.87
2022-08-17T17:15:10.694Z,29.78
2022-08-17T17:17:39.511Z,29.78
2022-08-17T17:20:16.834Z,29.93
2022-08-17T17:23:11.304Z,30.04
2022-08-17T17:25:48.803Z,29.87
2022-08-17T17:28:27.663Z,29.55
2022-08-17T17:31:04.021Z,29.31
2022-08-17T17:33:37.502Z,29.09
2022-08-17T17:36:15.924Z,28.94
2022-08-17T17:38:49.113Z,28.80
2022-08-17T17:41:26.160Z,28.68
2022-08-17T17:44:07.513Z,28.56
2022-08-17T17:46:42.012Z,28.40
2022-08-17T17:49:14.259Z,28.28
2022-08-17T17:52:13.170Z,28.15
2022-08-17T17:55:09.927Z,28.04
2022-08-17T17:57:52.995Z,27.88
2022-08-17T18:00:33.638Z,27.75
2022-08-17T18:03:00.326Z,27.64
2022-08-17T18:05:49.029Z,27.52
2022-08-17T18:08:32.427Z,27.44
2022-08-17T18:11:33.076Z,27.37
2022-08-17T18:14:25.284Z,27.22
2022-08-17T18:16:55.904Z,27.08
2022-08-17T18:19:25.603Z,26.97
2022-08-17T18:21:56.552Z,26.84
2022-08-17T18:24:37.909Z,26.77
2022-08-17T18:27:17.437Z,26.68
2022-08-17T18:29:45.322Z,26.57
2022-08-17T18:32:15.827Z,26.48
2022-08-17T18:34:47.613Z,26.44
2022-08-17T18:37:31.281Z,26.40
2022-08-17T18:39:58.085Z,26.38
2022-08-17T18:42:26.985Z,26.32
2022-08-17T18:44:55.457Z,26.27
2022-08-17T18:47:25.527Z,26.23
2022-08-17T18:50:18.979Z,26.21
2022-08-17T18:52:48.402Z,26.11
2022-08-17T18:55:20.838Z,26.05
2022-08-17T18:57:55.544Z,25.98
2022-08-17T19:00:41.496Z,25.85
2022-08-17T19:03:21.738Z,25.79
2022-08-17T19:05:57.055Z,25.73
2022-08-17T19:08:30.025Z,25.70
2022-08-17T19:11:09.802Z,25.67
2022-08-17T19:13:57.482Z,25.67
2022-08-17T19:16:34.907Z,25.63
2022-08-17T19:19:23.906Z,25.49
2022-08-17T19:21:56.144Z,25.48
2022-08-17T19:24:27.859Z,25.48
2022-08-17T19:27:23.796Z,25.48
2022-08-17T19:30:05.529Z,25.45
2022-08-17T19:32:35.775Z,25.44
2022-08-17T19:35:03.962Z,25.40
2022-08-17T19:37:39.169Z,25.37
2022-08-17T19:40:35.091Z,25.31
2022-08-17T19:43:23.840Z,25.30
2022-08-17T19:46:26.206Z,25.29
2022-08-17T19:49:10.523Z,25.26
2022-08-17T19:51:50.820Z,25.25
2022-08-17T19:54:41.794Z,25.25
2022-08-17T19:57:37.375Z,25.24
2022-08-17T20:00:12.244Z,25.22
2022-08-17T20:02:58.998Z,25.18
2022-08-17T20:05:27.702Z,25.17
2022-08-17T20:08:09.210Z,25.15
2022-08-17T20:10:58.797Z,25.13
2022-08-17T20:13:49.216Z,25.06
2022-08-17T20:16:17.609Z,25.00
2022-08-17T20:18:59.951Z,24.92
2022-08-17T20:21:34.982Z,24.91
2022-08-17T20:24:36.998Z,24.92
2022-08-17T20:27:12.686Z,24.94
2022-08-17T20:30:06.837Z,24.92
2022-08-17T20:32:36.867Z,24.93
2022-08-17T20:35:25.984Z,24.91
2022-08-17T20:38:36.204Z,24.90
2022-08-17T20:41:04.593Z,24.96
2022-08-17T20:43:34.177Z,24.83
2022-08-17T20:46:03.666Z,24.79
2022-08-17T20:48:41.386Z,24.83
2022-08-17T20:51:20.263Z,24.88
2022-08-17T20:53:47.191Z,24.89
2022-08-17T20:56:43.410Z,24.89
2022-08-17T20:59:26.034Z,24.93
2022-08-17T21:02:18.359Z,24.91
2022-08-17T21:05:02.533Z,24.92
2022-08-17T21:07:42.932Z,24.93
2022-08-17T21:10:13.251Z,24.91
2022-08-17T21:12:48.168Z,24.90
2022-08-17T21:15:42.351Z,24.91
2022-08-17T21:18:23.383Z,24.91
2022-08-17T21:21:16.877Z,24.90
2022-08-17T21:23:49.911Z,24.94
2022-08-17T21:26:20.762Z,25.00
2022-08-17T21:29:29.775Z,25.06
2022-08-17T21:32:03.612Z,25.12
2022-08-17T21:34:37.098Z,25.14
2022-08-17T21:37:22.339Z,25.15
2022-08-17T21:39:58.475Z,25.16
2022-08-17T21:42:29.827Z,25.15
2022-08-17T21:45:01.664Z,25.14
2022-08-17T21:47:38.347Z,25.01
2022-08-17T21:50:27.611Z,24.84
2022-08-17T21:52:58.722Z,24.71
2022-08-17T21:55:30.699Z,24.58
2022-08-17T21:58:14.195Z,24.47
2022-08-17T22:00:44.490Z,24.38
2022-08-17T22:03:23.741Z,24.29
2022-08-17T22:05:51.573Z,24.27
2022-08-17T22:08:25.632Z,24.24
2022-08-17T22:11:01.252Z,24.19
2022-08-17T22:13:29.742Z,24.16
2022-08-17T22:16:15.653Z,24.11
2022-08-17T22:18:55.747Z,24.08
2022-08-17T22:21:24.603Z,24.05
2022-08-17T22:24:05.134Z,24.01
2022-08-17T22:26:59.486Z,23.99
2022-08-17T22:29:54.307Z,23.96
2022-08-17T22:32:43.011Z,23.86
2022-08-17T22:35:41.743Z,23.78
2022-08-17T22:38:20.702Z,23.76
2022-08-17T22:40:52.038Z,23.74
2022-08-17T22:43:26.019Z,23.71
2022-08-17T22:45:55.456Z,23.69
2022-08-17T22:48:27.200Z,23.67
2022-08-17T22:51:12.734Z,23.64
2022-08-17T22:54:32.858Z,23.61
2022-08-17T22:57:20.744Z,23.55
2022-08-17T22:59:53.579Z,23.42
2022-08-17T23:02:29.640Z,23.34
2022-08-17T23:05:17.533Z,23.22
2022-08-17T23:07:46.666Z,23.18
2022-08-17T23:10:13.995Z,23.20
2022-08-17T23:12:40.850Z,23.25
2022-08-17T23:15:16.059Z,23.28
2022-08-17T23:17:42.841Z,23.30
2022-08-17T23:20:14.014Z,23.33
2022-08-17T23:22:52.312Z,23.35
2022-08-17T23:25:33.663Z,23.39
2022-08-17T23:28:02.158Z,23.38
2022-08-17T23:30:31.232Z,23.35
2022-08-17T23:33:03.865Z,23.34
2022-08-17T23:35:39.904Z,23.35
2022-08-17T23:38:11.850Z,23.30
2022-08-17T23:40:39.509Z,23.30
2022-08-17T23:43:23.479Z,23.29
2022-08-17T23:45:54.020Z,23.28
2022-08-17T23:48:32.573Z,23.20
2022-08-17T23:51:05.935Z,23.22
2022-08-17T23:53:34.737Z,23.22
2022-08-17T23:56:06.911Z,23.18
2022-08-17T23:58:42.237Z,23.18
